Time;durP1;ratioP1;P1;durP2;ratioP2;P2;SDS_P1;SDS_P2;PMS_P1;PMS_P2;Temp;Humidity;BMP_temperature;BMP_pressure;BME280_temperature;BME280_humidity;BME280_pressure;Samples;Min_cycle;Max_cycle;Signal;HPM_P1;HPM_P2
2023/05/18 00:01:14;;;;;;;;;;;11.80;99.90;;;;;;5049553;28;20701;-81
2023/05/18 00:03:41;;;;;;;;;;;11.80;99.90;;;;;;5061170;28;20363;-81
2023/05/18 00:06:08;;;;;;;;;;;11.80;99.90;;;;;;5078150;28;20003;-80
2023/05/18 00:08:36;;;;;;;;;;;11.80;99.90;;;;;;5080469;28;19932;-81
2023/05/18 00:11:03;;;;;;;;;;;11.80;99.90;;;;;;5082151;28;19928;-80
2023/05/18 00:13:30;;;;;;;;;;;11.80;99.90;;;;;;5080984;28;19924;-81
2023/05/18 00:15:56;;;;;;;;;;;11.80;99.90;;;;;;5052936;28;20712;-81
2023/05/18 00:18:25;;;;;;;;;;;11.80;99.90;;;;;;5079364;28;20359;-81
2023/05/18 00:20:57;;;;;;;;;;;11.80;99.90;;;;;;5075387;28;19924;-81
2023/05/18 00:23:31;;;;;;;;;;;11.70;99.90;;;;;;5076851;28;20287;-81
2023/05/18 00:25:59;;;;;;;;;;;11.80;99.90;;;;;;5080024;28;19928;-81
2023/05/18 00:28:25;;;;;;;;;;;11.80;99.90;;;;;;5082164;28;19993;-82
2023/05/18 00:30:52;;;;;;;;;;;11.70;99.90;;;;;;5068551;28;20393;-82
2023/05/18 00:33:19;;;;;;;;;;;11.70;99.90;;;;;;5086019;28;19930;-82
2023/05/18 00:35:46;;;;;;;;;;;11.70;99.90;;;;;;5085684;28;20408;-82
2023/05/18 00:38:14;;;;;;;;;;;11.60;99.90;;;;;;5084040;28;19985;-81
2023/05/18 00:40:41;;;;;;;;;;;11.60;99.90;;;;;;5063476;28;19928;-80
2023/05/18 00:43:08;;;;;;;;;;;11.60;99.90;;;;;;5082912;28;19928;-81
2023/05/18 00:45:35;;;;;;;;;;;11.50;99.90;;;;;;5084355;28;19936;-81
2023/05/18 00:48:02;;;;;;;;;;;11.50;99.90;;;;;;5066107;28;19928;-81
2023/05/18 00:50:29;;;;;;;;;;;11.50;99.90;;;;;;5083498;28;20329;-81
2023/05/18 00:52:56;;;;;;;;;;;11.50;99.90;;;;;;5082405;28;19939;-80
2023/05/18 00:55:23;;;;;;;;;;;11.50;99.90;;;;;;5063711;28;19990;-81
2023/05/18 00:57:50;;;;;;;;;;;11.40;99.90;;;;;;5082872;28;20047;-82
2023/05/18 01:00:19;;;;;;;;;;;11.40;99.90;;;;;;5073520;28;19970;-80
2023/05/18 01:02:46;;;;;;;;;;;11.40;99.90;;;;;;5081013;28;19982;-81
2023/05/18 01:05:13;;;;;;;;;;;11.30;99.90;;;;;;5078687;28;19943;-81
2023/05/18 01:07:43;;;;;;;;;;;11.30;99.90;;;;;;5068475;28;19989;-81
2023/05/18 01:10:09;;;;;;;;;;;11.30;99.90;;;;;;5084275;28;19935;-81
2023/05/18 01:12:39;;;;;;;;;;;11.20;99.90;;;;;;5066542;28;19928;-82
2023/05/18 01:15:07;;;;;;;;;;;11.20;99.90;;;;;;5083487;28;20498;-81
2023/05/18 01:17:43;;;;;;;;;;;11.20;99.90;;;;;;5086196;28;20283;-81
2023/05/18 01:20:10;;;;;;;;;;;11.20;99.90;;;;;;5075135;28;19928;-81
2023/05/18 01:22:40;;;;;;;;;;;11.20;99.90;;;;;;5087620;28;19924;-80
2023/05/18 01:25:28;;;;;;;;;;;11.20;99.90;;;;;;5086088;28;19931;-81
2023/05/18 01:27:56;;;;;;;;;;;11.20;99.90;;;;;;5084962;28;19932;-80
2023/05/18 01:30:23;;;;;;;;;;;11.20;99.90;;;;;;5067927;28;20446;-81
2023/05/18 01:32:49;;;;;;;;;;;11.10;99.90;;;;;;5060653;28;19924;-81
2023/05/18 01:35:16;;;;;;;;;;;11.20;99.90;;;;;;5083486;28;19993;-81
2023/05/18 01:37:43;;;;;;;;;;;11.10;99.90;;;;;;5083506;28;20384;-81
2023/05/18 01:40:10;;;;;;;;;;;11.20;99.90;;;;;;5087270;28;19993;-81
2023/05/18 01:42:38;;;;;;;;;;;11.10;99.90;;;;;;5087917;28;19967;-81
2023/05/18 01:45:08;;;;;;;;;;;11.00;99.90;;;;;;5089936;28;20364;-82
2023/05/18 01:47:36;;;;;;;;;;;11.00;99.90;;;;;;5085890;28;19979;-81
2023/05/18 01:50:04;;;;;;;;;;;11.00;99.90;;;;;;5067127;28;20019;-81
2023/05/18 01:52:31;;;;;;;;;;;11.00;99.90;;;;;;5054979;28;19931;-81
2023/05/18 01:54:59;;;;;;;;;;;11.00;99.90;;;;;;5086196;28;20019;-81
2023/05/18 01:57:26;;;;;;;;;;;11.10;99.90;;;;;;5087119;28;20255;-81
2023/05/18 01:59:53;;;;;;;;;;;11.10;99.90;;;;;;5086690;28;19932;-82
2023/05/18 02:02:20;;;;;;;;;;;11.10;99.90;;;;;;5089134;28;20030;-81
2023/05/18 02:04:48;;;;;;;;;;;11.00;99.90;;;;;;5085640;28;19924;-80
2023/05/18 02:07:15;;;;;;;;;;;11.00;99.90;;;;;;5087531;28;19928;-81
2023/05/18 02:09:43;;;;;;;;;;;10.90;99.90;;;;;;5084897;28;19928;-81
2023/05/18 02:12:10;;;;;;;;;;;10.90;99.90;;;;;;5086494;28;20382;-81
2023/05/18 02:14:37;;;;;;;;;;;10.90;99.90;;;;;;5070016;28;19924;-81
2023/05/18 02:17:05;;;;;;;;;;;11.00;99.90;;;;;;5087079;28;19930;-81
2023/05/18 02:19:32;;;;;;;;;;;11.00;99.90;;;;;;5091482;28;19924;-81
2023/05/18 02:21:59;;;;;;;;;;;11.00;99.90;;;;;;5093543;28;19924;-82
2023/05/18 02:24:26;;;;;;;;;;;11.00;99.90;;;;;;5086864;28;19928;-80
2023/05/18 02:26:53;;;;;;;;;;;10.90;99.90;;;;;;5091564;28;20087;-81
2023/05/18 02:29:20;;;;;;;;;;;10.90;99.90;;;;;;5095011;28;20129;-81
2023/05/18 02:31:47;;;;;;;;;;;10.90;99.90;;;;;;5088605;28;20054;-81
2023/05/18 02:34:14;;;;;;;;;;;10.90;99.90;;;;;;5086672;28;19928;-81
2023/05/18 02:36:41;;;;;;;;;;;11.00;99.90;;;;;;5092791;28;19924;-81
2023/05/18 02:39:09;;;;;;;;;;;10.90;99.90;;;;;;5080294;28;19931;-81
2023/05/18 02:41:36;;;;;;;;;;;10.90;99.90;;;;;;5098048;28;19932;-81
2023/05/18 02:44:03;;;;;;;;;;;10.90;99.90;;;;;;5078345;28;19932;-82
2023/05/18 02:46:30;;;;;;;;;;;10.90;99.90;;;;;;5061879;28;19925;-81
2023/05/18 02:48:56;;;;;;;;;;;10.90;99.90;;;;;;5079790;28;19924;-81
2023/05/18 02:51:23;;;;;;;;;;;10.90;99.90;;;;;;5098833;28;19924;-81
2023/05/18 02:53:50;;;;;;;;;;;10.90;99.90;;;;;;5099631;28;19946;-81
2023/05/18 02:56:17;;;;;;;;;;;11.00;99.90;;;;;;5094815;28;19989;-81
2023/05/18 02:58:44;;;;;;;;;;;10.90;99.90;;;;;;5069401;28;20049;-82
2023/05/18 03:01:13;;;;;;;;;;;10.90;99.90;;;;;;5086097;28;19932;-82
2023/05/18 03:03:40;;;;;;;;;;;10.90;99.90;;;;;;5086020;28;20476;-81
2023/05/18 03:06:08;;;;;;;;;;;10.90;99.90;;;;;;5086693;28;19932;-81
2023/05/18 03:08:36;;;;;;;;;;;10.90;99.90;;;;;;5068344;28;20389;-82
2023/05/18 03:11:03;;;;;;;;;;;10.90;99.90;;;;;;5086670;28;19924;-81
2023/05/18 03:13:29;;;;;;;;;;;10.80;99.90;;;;;;5065452;28;20367;-81
2023/05/18 03:15:56;;;;;;;;;;;10.80;99.90;;;;;;5085521;28;19963;-80
2023/05/18 03:18:24;;;;;;;;;;;10.70;99.90;;;;;;5065616;28;19994;-80
2023/05/18 03:20:51;;;;;;;;;;;10.70;99.90;;;;;;5082478;28;20362;-81
2023/05/18 03:23:18;;;;;;;;;;;10.70;99.90;;;;;;5067464;28;19930;-82
2023/05/18 03:25:45;;;;;;;;;;;10.60;99.90;;;;;;5085859;28;19960;-82
2023/05/18 03:28:12;;;;;;;;;;;10.60;99.90;;;;;;5068422;28;20031;-81
2023/05/18 03:30:38;;;;;;;;;;;10.60;99.90;;;;;;5086415;28;20287;-81
2023/05/18 03:33:05;;;;;;;;;;;10.60;99.90;;;;;;5084594;28;19924;-81
2023/05/18 03:35:32;;;;;;;;;;;10.60;99.90;;;;;;5084845;28;19928;-81
2023/05/18 03:37:59;;;;;;;;;;;10.60;99.90;;;;;;5084930;28;20410;-81
2023/05/18 03:40:26;;;;;;;;;;;10.60;99.90;;;;;;5084896;28;20005;-81
2023/05/18 03:42:53;;;;;;;;;;;10.50;99.90;;;;;;5084611;28;19967;-81
2023/05/18 03:45:19;;;;;;;;;;;10.40;99.90;;;;;;5084551;28;19997;-81
2023/05/18 03:47:46;;;;;;;;;;;10.30;99.90;;;;;;5084840;28;19928;-81
2023/05/18 03:50:13;;;;;;;;;;;10.30;99.90;;;;;;5085915;28;19928;-81
2023/05/18 03:52:41;;;;;;;;;;;10.20;99.90;;;;;;5068280;28;19936;-81
2023/05/18 03:55:08;;;;;;;;;;;10.20;99.90;;;;;;5083964;28;19981;-81
2023/05/18 03:57:34;;;;;;;;;;;10.10;99.90;;;;;;5068031;28;20367;-81
2023/05/18 04:00:08;;;;;;;;;;;10.10;99.90;;;;;;5076838;28;19937;-81
2023/05/18 04:02:35;;;;;;;;;;;10.00;99.90;;;;;;5071055;28;19930;-82
2023/05/18 04:05:02;;;;;;;;;;;10.00;99.90;;;;;;5083935;28;19924;-81
2023/05/18 04:07:29;;;;;;;;;;;10.00;99.90;;;;;;5085217;28;20075;-83
2023/05/18 04:09:56;;;;;;;;;;;10.00;99.90;;;;;;5085535;28;20001;-82
2023/05/18 04:12:23;;;;;;;;;;;9.90;99.90;;;;;;5068020;28;19924;-82
2023/05/18 04:14:49;;;;;;;;;;;9.90;99.90;;;;;;5068163;28;19982;-81
2023/05/18 04:17:16;;;;;;;;;;;9.90;99.90;;;;;;5085157;28;20401;-81
2023/05/18 04:19:43;;;;;;;;;;;9.80;99.90;;;;;;5083647;28;19996;-82
2023/05/18 04:22:10;;;;;;;;;;;9.80;99.90;;;;;;5082663;28;20309;-81
2023/05/18 04:24:37;;;;;;;;;;;9.80;99.90;;;;;;5080919;28;19985;-82
2023/05/18 04:27:03;;;;;;;;;;;9.70;99.90;;;;;;5084326;28;19924;-82
2023/05/18 04:29:30;;;;;;;;;;;9.70;99.90;;;;;;5064250;28;19932;-81
2023/05/18 04:31:59;;;;;;;;;;;9.60;99.90;;;;;;5084276;28;19924;-81
2023/05/18 04:34:27;;;;;;;;;;;9.50;99.90;;;;;;5083654;28;19932;-82
2023/05/18 04:36:55;;;;;;;;;;;9.40;99.90;;;;;;5082714;28;19924;-82
2023/05/18 04:39:22;;;;;;;;;;;9.40;99.90;;;;;;5068843;28;20014;-82
2023/05/18 04:41:49;;;;;;;;;;;9.40;99.90;;;;;;5080543;28;20240;-82
2023/05/18 04:44:17;;;;;;;;;;;9.40;99.90;;;;;;5058097;28;20300;-82
2023/05/18 04:46:46;;;;;;;;;;;9.40;99.90;;;;;;5083039;28;20333;-80
2023/05/18 04:49:13;;;;;;;;;;;9.40;99.90;;;;;;5078328;28;19924;-81
2023/05/18 04:51:40;;;;;;;;;;;9.40;99.90;;;;;;5081820;28;19977;-81
2023/05/18 04:54:11;;;;;;;;;;;9.40;99.90;;;;;;5078712;28;19924;-81
2023/05/18 04:56:38;;;;;;;;;;;9.50;99.90;;;;;;5060257;28;19940;-81
2023/05/18 04:59:05;;;;;;;;;;;9.50;99.90;;;;;;5073152;28;20045;-82
2023/05/18 05:01:32;;;;;;;;;;;9.40;99.90;;;;;;5055370;28;20012;-80
2023/05/18 05:03:59;;;;;;;;;;;9.40;99.90;;;;;;5070076;28;19935;-81
2023/05/18 05:06:26;;;;;;;;;;;9.40;99.90;;;;;;5052111;28;19928;-80
2023/05/18 05:08:53;;;;;;;;;;;9.40;99.90;;;;;;5075003;28;20436;-80
2023/05/18 05:11:20;;;;;;;;;;;9.40;99.90;;;;;;5073669;28;19928;-81
2023/05/18 05:13:47;;;;;;;;;;;9.40;99.90;;;;;;5080781;28;19953;-82
2023/05/18 05:16:14;;;;;;;;;;;9.50;99.90;;;;;;5082830;28;19928;-82
2023/05/18 05:18:40;;;;;;;;;;;9.50;99.90;;;;;;5062650;28;20448;-82
2023/05/18 05:21:07;;;;;;;;;;;9.50;99.90;;;;;;5077986;28;19924;-83
2023/05/18 05:23:34;;;;;;;;;;;9.60;99.90;;;;;;5082313;28;20071;-82
2023/05/18 05:26:01;;;;;;;;;;;9.60;99.90;;;;;;5059701;28;20466;-83
2023/05/18 05:28:28;;;;;;;;;;;9.60;99.90;;;;;;5075491;28;19946;-81
2023/05/18 05:30:55;;;;;;;;;;;9.50;99.90;;;;;;5075652;28;19924;-80
2023/05/18 05:33:21;;;;;;;;;;;9.60;99.90;;;;;;5060320;28;19932;-82
2023/05/18 05:35:48;;;;;;;;;;;9.60;99.90;;;;;;5058865;28;20429;-82
2023/05/18 05:38:15;;;;;;;;;;;9.60;99.90;;;;;;5054290;28;19944;-81
2023/05/18 05:40:42;;;;;;;;;;;9.60;99.90;;;;;;5073674;28;19971;-81
2023/05/18 05:43:09;;;;;;;;;;;9.70;99.90;;;;;;5075885;28;20390;-82
2023/05/18 05:45:37;;;;;;;;;;;9.80;99.90;;;;;;5059377;28;19934;-81
2023/05/18 05:48:04;;;;;;;;;;;9.90;99.90;;;;;;5051554;28;19932;-81
2023/05/18 05:50:31;;;;;;;;;;;10.00;99.90;;;;;;5066689;28;19960;-81
2023/05/18 05:52:59;;;;;;;;;;;10.00;99.90;;;;;;5059405;28;19932;-82
2023/05/18 05:55:26;;;;;;;;;;;10.10;99.90;;;;;;5074001;28;20451;-80
2023/05/18 05:57:53;;;;;;;;;;;10.10;99.90;;;;;;5074320;28;19932;-83
2023/05/18 06:00:20;;;;;;;;;;;10.20;99.90;;;;;;5059682;28;20383;-82
2023/05/18 06:02:47;;;;;;;;;;;10.30;99.90;;;;;;5078689;28;19943;-80
2023/05/18 06:05:14;;;;;;;;;;;10.40;99.90;;;;;;5073159;28;19928;-80
2023/05/18 06:07:41;;;;;;;;;;;10.50;99.90;;;;;;5078586;28;20380;-81
2023/05/18 06:10:08;;;;;;;;;;;10.60;99.90;;;;;;5072958;28;19986;-81
2023/05/18 06:12:35;;;;;;;;;;;10.70;99.90;;;;;;5073716;28;19928;-80
2023/05/18 06:15:01;;;;;;;;;;;10.70;99.90;;;;;;5076550;28;20336;-81
2023/05/18 06:17:29;;;;;;;;;;;10.70;99.90;;;;;;5078345;28;19932;-81
2023/05/18 06:19:56;;;;;;;;;;;10.90;99.90;;;;;;5061715;28;20049;-81
2023/05/18 06:22:23;;;;;;;;;;;10.90;99.90;;;;;;5057287;28;20646;-81
2023/05/18 06:24:50;;;;;;;;;;;11.00;99.90;;;;;;5074862;28;19932;-80
2023/05/18 06:27:18;;;;;;;;;;;11.00;99.90;;;;;;5073473;28;20784;-80
2023/05/18 06:29:45;;;;;;;;;;;11.10;99.90;;;;;;5057728;28;20081;-81
2023/05/18 06:32:12;;;;;;;;;;;11.20;99.90;;;;;;5059730;28;20023;-81
2023/05/18 06:34:39;;;;;;;;;;;11.30;99.90;;;;;;5075604;28;19928;-80
2023/05/18 06:37:06;;;;;;;;;;;11.30;99.90;;;;;;5048601;28;20002;-81
2023/05/18 06:39:33;;;;;;;;;;;11.30;99.90;;;;;;5055549;28;19950;-80
2023/05/18 06:41:59;;;;;;;;;;;11.30;99.90;;;;;;5057785;28;19928;-81
2023/05/18 06:44:27;;;;;;;;;;;11.40;99.90;;;;;;5056244;28;19937;-81
2023/05/18 06:46:54;;;;;;;;;;;11.50;99.90;;;;;;5061902;28;19934;-81
2023/05/18 06:49:21;;;;;;;;;;;11.50;99.90;;;;;;5058672;28;19928;-83
2023/05/18 06:51:48;;;;;;;;;;;11.60;99.90;;;;;;5077279;28;19947;-81
2023/05/18 06:54:16;;;;;;;;;;;11.70;99.90;;;;;;5077054;28;19967;-80
2023/05/18 06:56:46;;;;;;;;;;;11.80;99.90;;;;;;5076853;28;19935;-81
2023/05/18 06:59:13;;;;;;;;;;;11.90;99.90;;;;;;5073159;28;20268;-81
2023/05/18 07:01:40;;;;;;;;;;;12.00;99.90;;;;;;5060276;28;20059;-80
2023/05/18 07:04:07;;;;;;;;;;;12.10;99.90;;;;;;5077905;28;19924;-79
2023/05/18 07:06:35;;;;;;;;;;;12.10;99.90;;;;;;5076883;28;19981;-80
2023/05/18 07:09:02;;;;;;;;;;;12.10;99.90;;;;;;5075279;28;20351;-80
2023/05/18 07:11:29;;;;;;;;;;;12.20;99.90;;;;;;5077025;28;20008;-82
2023/05/18 07:13:56;;;;;;;;;;;12.30;99.90;;;;;;5076699;28;19931;-80
2023/05/18 07:16:24;;;;;;;;;;;12.40;99.90;;;;;;5078425;28;19928;-80
2023/05/18 07:18:51;;;;;;;;;;;12.40;99.90;;;;;;5075751;28;20341;-83
2023/05/18 07:21:18;;;;;;;;;;;12.40;99.90;;;;;;5077313;28;19928;-80
2023/05/18 07:23:45;;;;;;;;;;;12.40;99.90;;;;;;5073845;28;20008;-81
2023/05/18 07:26:12;;;;;;;;;;;12.50;99.90;;;;;;5060016;28;19928;-80
2023/05/18 07:28:39;;;;;;;;;;;12.60;99.90;;;;;;5059918;28;19932;-80
2023/05/18 07:31:06;;;;;;;;;;;12.70;99.90;;;;;;5059817;28;19978;-81
2023/05/18 07:33:33;;;;;;;;;;;12.80;99.90;;;;;;5073082;28;20523;-81
2023/05/18 07:36:00;;;;;;;;;;;12.90;99.90;;;;;;5054772;28;19950;-81
2023/05/18 07:38:27;;;;;;;;;;;12.90;99.90;;;;;;5055304;28;19932;-80
2023/05/18 07:40:53;;;;;;;;;;;13.00;99.90;;;;;;5052111;28;19928;-79
2023/05/18 07:43:20;;;;;;;;;;;13.10;99.90;;;;;;5076057;28;20757;-80
2023/05/18 07:45:47;;;;;;;;;;;13.10;99.90;;;;;;5059972;28;19940;-80
2023/05/18 07:48:15;;;;;;;;;;;13.20;99.90;;;;;;5059515;28;20065;-80
2023/05/18 07:50:41;;;;;;;;;;;13.30;99.90;;;;;;5055690;28;20001;-79
2023/05/18 07:53:08;;;;;;;;;;;13.40;99.90;;;;;;5064895;28;20703;-81
2023/05/18 07:55:35;;;;;;;;;;;13.40;99.90;;;;;;5075661;28;19932;-80
2023/05/18 07:58:02;;;;;;;;;;;13.50;99.90;;;;;;5076150;28;19928;-81
2023/05/18 08:00:29;;;;;;;;;;;13.60;99.90;;;;;;5054984;28;19944;-81
2023/05/18 08:02:56;;;;;;;;;;;13.70;99.90;;;;;;5045351;28;19985;-80
2023/05/18 08:05:23;;;;;;;;;;;13.80;99.90;;;;;;5055613;28;19925;-81
2023/05/18 08:07:50;;;;;;;;;;;13.90;99.90;;;;;;5056202;28;19929;-82
2023/05/18 08:10:17;;;;;;;;;;;13.90;99.90;;;;;;5067948;28;20411;-81
2023/05/18 08:12:44;;;;;;;;;;;14.00;99.90;;;;;;5076665;28;19928;-81
2023/05/18 08:15:11;;;;;;;;;;;14.10;99.90;;;;;;5055727;28;20463;-81
2023/05/18 08:17:38;;;;;;;;;;;14.20;99.90;;;;;;5055868;28;19979;-81
2023/05/18 08:20:07;;;;;;;;;;;14.30;99.90;;;;;;5056110;28;19938;-81
2023/05/18 08:22:33;;;;;;;;;;;14.40;99.90;;;;;;5078079;28;20438;-82
2023/05/18 08:25:00;;;;;;;;;;;14.50;99.90;;;;;;5063867;28;19928;-81
2023/05/18 08:27:27;;;;;;;;;;;14.60;99.90;;;;;;5053523;28;20032;-81
2023/05/18 08:29:54;;;;;;;;;;;14.60;99.90;;;;;;5056213;28;19997;-82
2023/05/18 08:32:21;;;;;;;;;;;14.60;99.90;;;;;;5073540;28;20420;-82
2023/05/18 08:34:50;;;;;;;;;;;14.60;99.90;;;;;;5055195;28;19985;-81
2023/05/18 08:37:17;;;;;;;;;;;14.70;99.90;;;;;;5073458;28;19932;-81
2023/05/18 08:39:44;;;;;;;;;;;14.80;99.90;;;;;;5075960;28;19932;-82
2023/05/18 08:42:19;;;;;;;;;;;14.90;99.90;;;;;;5057351;28;19971;-81
2023/05/18 08:44:51;;;;;;;;;;;15.00;99.90;;;;;;5064329;28;19936;-80
2023/05/18 08:47:18;;;;;;;;;;;15.00;99.90;;;;;;5073401;28;19958;-82
2023/05/18 08:49:45;;;;;;;;;;;15.10;99.90;;;;;;5078434;28;20543;-81
2023/05/18 08:52:13;;;;;;;;;;;15.20;99.90;;;;;;5079919;28;20161;-81
2023/05/18 08:54:39;;;;;;;;;;;15.20;99.90;;;;;;5058044;28;20003;-82
2023/05/18 08:57:38;;;;;;;;;;;15.40;99.90;;;;;;5061236;28;20005;-82
2023/05/18 09:00:05;;;;;;;;;;;15.50;99.90;;;;;;5079812;28;19932;-82
2023/05/18 09:02:32;;;;;;;;;;;15.60;99.90;;;;;;5057122;28;19977;-83
2023/05/18 09:04:59;;;;;;;;;;;15.70;99.90;;;;;;5058390;28;19936;-82
2023/05/18 09:07:26;;;;;;;;;;;15.80;99.90;;;;;;5069461;28;19928;-81
2023/05/18 09:09:53;;;;;;;;;;;15.90;99.90;;;;;;5064413;28;19930;-82
2023/05/18 09:12:21;;;;;;;;;;;16.00;99.90;;;;;;5078376;28;19967;-81
2023/05/18 09:14:50;;;;;;;;;;;16.10;99.90;;;;;;5059900;28;19924;-81
2023/05/18 09:17:17;;;;;;;;;;;16.20;99.90;;;;;;5083508;28;19963;-81
2023/05/18 09:19:44;;;;;;;;;;;16.30;99.90;;;;;;5072184;28;21566;-80
2023/05/18 09:22:11;;;;;;;;;;;16.50;99.90;;;;;;5062935;28;19928;-81
2023/05/18 09:24:38;;;;;;;;;;;16.60;99.90;;;;;;5070309;28;19992;-80
2023/05/18 09:27:05;;;;;;;;;;;16.60;99.90;;;;;;5080094;28;20357;-81
2023/05/18 09:29:32;;;;;;;;;;;16.60;99.90;;;;;;5060348;28;19939;-81
2023/05/18 09:32:05;;;;;;;;;;;16.60;99.90;;;;;;5076317;28;19928;-81
2023/05/18 09:34:39;;;;;;;;;;;16.70;99.90;;;;;;5061811;28;19924;-80
2023/05/18 09:37:06;;;;;;;;;;;16.80;99.90;;;;;;5054943;28;19976;-81
2023/05/18 09:39:33;;;;;;;;;;;16.80;99.90;;;;;;5056138;28;20273;-82
2023/05/18 09:42:02;;;;;;;;;;;16.90;99.90;;;;;;5081674;28;19993;-81
2023/05/18 09:44:35;;;;;;;;;;;17.00;99.90;;;;;;5061369;28;20340;-81
2023/05/18 09:47:05;;;;;;;;;;;17.20;99.90;;;;;;5059589;28;19928;-82
2023/05/18 09:49:33;;;;;;;;;;;17.20;99.90;;;;;;5077385;28;20349;-81
2023/05/18 09:52:00;;;;;;;;;;;17.30;99.90;;;;;;5077897;28;19963;-82
2023/05/18 09:54:27;;;;;;;;;;;17.50;99.90;;;;;;5093994;28;19935;-82
2023/05/18 09:56:54;;;;;;;;;;;17.50;99.90;;;;;;5061475;28;19954;-81
2023/05/18 09:59:36;;;;;;;;;;;17.60;99.90;;;;;;5078663;28;19928;-83
2023/05/18 10:02:08;;;;;;;;;;;17.70;99.90;;;;;;5078198;28;19928;-83
2023/05/18 10:04:39;;;;;;;;;;;17.80;99.90;;;;;;5063346;28;20379;-83
2023/05/18 10:07:12;;;;;;;;;;;17.50;99.90;;;;;;5057984;28;19934;-83
2023/05/18 10:09:40;;;;;;;;;;;17.40;99.90;;;;;;5059314;28;19928;-82
2023/05/18 10:12:13;;;;;;;;;;;17.50;99.90;;;;;;5077635;28;19928;-82
2023/05/18 10:14:41;;;;;;;;;;;17.50;99.90;;;;;;5078303;28;19924;-82
2023/05/18 10:17:09;;;;;;;;;;;17.60;99.90;;;;;;5077911;28;19951;-83
2023/05/18 10:19:42;;;;;;;;;;;17.70;99.90;;;;;;5077184;28;19955;-83
2023/05/18 10:22:08;;;;;;;;;;;17.60;99.90;;;;;;5060981;28;19936;-82
2023/05/18 10:24:38;;;;;;;;;;;17.70;99.90;;;;;;5056029;28;19925;-82
2023/05/18 10:27:06;;;;;;;;;;;17.80;99.90;;;;;;5057852;28;20023;-82
2023/05/18 10:29:34;;;;;;;;;;;17.80;99.90;;;;;;5058325;28;19929;-82
2023/05/18 10:32:01;;;;;;;;;;;17.90;99.90;;;;;;5059115;28;19963;-79
2023/05/18 10:34:33;;;;;;;;;;;18.00;99.90;;;;;;5064567;28;19924;-83
2023/05/18 10:37:00;;;;;;;;;;;18.10;99.90;;;;;;5073112;28;20027;-83
2023/05/18 10:39:27;;;;;;;;;;;18.30;99.90;;;;;;5053557;28;19937;-82
2023/05/18 10:41:54;;;;;;;;;;;18.40;99.70;;;;;;5057046;28;19924;-82
2023/05/18 10:44:21;;;;;;;;;;;18.60;99.90;;;;;;5055535;28;19978;-83
2023/05/18 10:46:47;;;;;;;;;;;18.60;99.90;;;;;;5058591;28;19950;-83
2023/05/18 10:49:16;;;;;;;;;;;18.80;99.90;;;;;;5069721;28;20031;-82
2023/05/18 10:51:43;;;;;;;;;;;18.90;99.90;;;;;;5082534;28;20262;-82
2023/05/18 10:54:13;;;;;;;;;;;18.80;99.90;;;;;;5057586;28;20004;-82
2023/05/18 10:56:41;;;;;;;;;;;18.90;99.90;;;;;;5074795;28;19943;-82
2023/05/18 10:59:08;;;;;;;;;;;19.00;99.90;;;;;;5084836;28;20364;-83
2023/05/18 11:01:35;;;;;;;;;;;19.30;99.90;;;;;;5068864;28;19936;-82
2023/05/18 11:04:02;;;;;;;;;;;19.70;99.40;;;;;;5055725;28;19928;-81
2023/05/18 11:06:33;;;;;;;;;;;20.10;98.40;;;;;;5067153;28;20096;-83
2023/05/18 11:09:00;;;;;;;;;;;20.30;97.50;;;;;;5070809;28;19928;-82
2023/05/18 11:11:30;;;;;;;;;;;20.40;97.00;;;;;;5071781;28;20067;-82
2023/05/18 11:13:58;;;;;;;;;;;20.70;97.20;;;;;;5074740;28;20405;-83
2023/05/18 11:16:34;;;;;;;;;;;20.90;97.80;;;;;;5070548;28;19963;-81
2023/05/18 11:19:05;;;;;;;;;;;21.00;96.70;;;;;;5058887;28;20121;-82
2023/05/18 11:21:34;;;;;;;;;;;21.10;96.40;;;;;;5051666;28;20393;-81
2023/05/18 11:24:12;;;;;;;;;;;21.30;96.20;;;;;;5061477;28;19938;-83
2023/05/18 11:26:39;;;;;;;;;;;21.30;96.10;;;;;;5069219;28;19928;-82
2023/05/18 11:29:24;;;;;;;;;;;21.20;96.20;;;;;;5070904;28;20387;-83
2023/05/18 11:31:52;;;;;;;;;;;21.00;95.80;;;;;;5070854;28;19932;-82
2023/05/18 11:34:38;;;;;;;;;;;21.10;96.10;;;;;;5064355;28;20023;-83
2023/05/18 11:37:08;;;;;;;;;;;21.10;95.20;;;;;;5053303;28;19971;-82
2023/05/18 11:39:36;;;;;;;;;;;20.80;95.10;;;;;;5073890;28;19964;-82
2023/05/18 11:42:13;;;;;;;;;;;20.70;95.60;;;;;;5055647;28;20021;-82
2023/05/18 11:44:40;;;;;;;;;;;21.10;95.20;;;;;;5050024;28;19943;-83
2023/05/18 11:47:08;;;;;;;;;;;21.60;94.80;;;;;;5070283;28;19997;-84
2023/05/18 11:49:35;;;;;;;;;;;22.00;94.30;;;;;;5073088;28;19928;-82
2023/05/18 11:52:03;;;;;;;;;;;22.50;93.70;;;;;;5058996;28;20342;-83
2023/05/18 11:54:34;;;;;;;;;;;22.30;93.60;;;;;;5082285;28;19959;-83
2023/05/18 11:57:01;;;;;;;;;;;22.00;93.20;;;;;;5070410;28;20025;-83
2023/05/18 11:59:30;;;;;;;;;;;22.00;93.90;;;;;;5054496;28;19928;-83
2023/05/18 12:01:58;;;;;;;;;;;22.50;93.10;;;;;;5069071;28;19964;-83
2023/05/18 12:04:25;;;;;;;;;;;23.10;93.30;;;;;;5067690;28;19958;-83
2023/05/18 12:06:53;;;;;;;;;;;23.30;93.10;;;;;;5057713;28;20519;-84
2023/05/18 12:09:20;;;;;;;;;;;23.50;92.20;;;;;;5057293;28;20393;-84
2023/05/18 12:11:47;;;;;;;;;;;23.80;91.50;;;;;;5054177;28;19972;-84
2023/05/18 12:14:14;;;;;;;;;;;24.10;91.20;;;;;;5072779;28;20434;-83
2023/05/18 12:16:42;;;;;;;;;;;24.10;92.00;;;;;;5075918;28;19928;-84
2023/05/18 12:19:09;;;;;;;;;;;23.90;91.60;;;;;;5065921;28;19936;-83
2023/05/18 12:21:36;;;;;;;;;;;23.60;91.50;;;;;;5061690;28;19951;-83
2023/05/18 12:24:04;;;;;;;;;;;23.30;91.20;;;;;;5077880;28;19928;-82
2023/05/18 12:26:31;;;;;;;;;;;23.20;92.30;;;;;;5067635;28;19934;-83
2023/05/18 12:29:01;;;;;;;;;;;23.20;92.10;;;;;;5061113;28;20115;-83
2023/05/18 12:31:28;;;;;;;;;;;23.30;91.50;;;;;;5072036;28;19931;-83
2023/05/18 12:33:56;;;;;;;;;;;23.60;91.10;;;;;;5077352;28;19928;-83
2023/05/18 12:36:26;;;;;;;;;;;23.90;91.30;;;;;;5056538;28;19929;-84
2023/05/18 12:38:53;;;;;;;;;;;23.30;91.20;;;;;;5064918;28;19968;-83
2023/05/18 12:41:23;;;;;;;;;;;23.20;91.30;;;;;;5061630;28;19938;-88
2023/05/18 12:43:53;;;;;;;;;;;23.10;91.00;;;;;;5074960;28;19934;-90
2023/05/18 12:46:21;;;;;;;;;;;23.10;91.40;;;;;;5088487;28;19938;-90
2023/05/18 12:48:55;;;;;;;;;;;23.90;92.30;;;;;;5089152;28;20110;-89
2023/05/18 12:51:23;;;;;;;;;;;24.40;90.80;;;;;;5089050;28;19928;-88
2023/05/18 12:53:49;;;;;;;;;;;24.50;90.40;;;;;;5068924;28;20575;-89
2023/05/18 12:56:16;;;;;;;;;;;24.00;90.50;;;;;;5069779;28;19932;-89
2023/05/18 12:58:53;;;;;;;;;;;23.90;90.50;;;;;;5087218;28;19928;-88
2023/05/18 13:01:20;;;;;;;;;;;24.20;90.70;;;;;;5091388;28;20023;-87
2023/05/18 13:03:47;;;;;;;;;;;23.70;90.60;;;;;;5073559;28;19931;-87
2023/05/18 13:06:14;;;;;;;;;;;23.80;90.50;;;;;;5071835;28;19958;-87
2023/05/18 13:08:41;;;;;;;;;;;24.70;90.00;;;;;;5072072;28;20007;-88
2023/05/18 13:11:09;;;;;;;;;;;25.80;88.90;;;;;;5059837;28;19986;-87
2023/05/18 13:13:56;;;;;;;;;;;26.30;88.10;;;;;;5066840;28;19954;-88
2023/05/18 13:16:23;;;;;;;;;;;26.00;88.00;;;;;;5073722;28;19975;-88
2023/05/18 13:18:57;;;;;;;;;;;25.60;87.90;;;;;;5073953;28;19932;-88
2023/05/18 13:21:24;;;;;;;;;;;25.30;87.90;;;;;;5069940;28;20027;-88
2023/05/18 13:23:51;;;;;;;;;;;25.50;87.70;;;;;;5068280;28;19924;-88
2023/05/18 13:26:22;;;;;;;;;;;25.40;87.70;;;;;;5067211;28;19929;-87
2023/05/18 13:28:49;;;;;;;;;;;25.60;87.50;;;;;;5068728;28;19928;-89
2023/05/18 13:31:17;;;;;;;;;;;25.00;86.50;;;;;;5076965;28;19947;-88
2023/05/18 13:33:44;;;;;;;;;;;24.20;87.50;;;;;;5078699;28;19925;-88
2023/05/18 13:36:11;;;;;;;;;;;23.80;88.20;;;;;;5086148;28;19924;-89
2023/05/18 13:38:38;;;;;;;;;;;23.60;90.10;;;;;;5085083;28;19935;-88
2023/05/18 13:41:05;;;;;;;;;;;23.20;90.40;;;;;;5081812;28;19932;-88
2023/05/18 13:43:32;;;;;;;;;;;23.10;90.50;;;;;;5080269;28;19969;-88
2023/05/18 13:45:59;;;;;;;;;;;23.50;90.30;;;;;;5073567;28;20045;-88
2023/05/18 13:48:29;;;;;;;;;;;24.10;90.10;;;;;;5073400;28;20203;-87
2023/05/18 13:50:55;;;;;;;;;;;24.50;89.90;;;;;;5069784;28;19931;-88
2023/05/18 13:53:22;;;;;;;;;;;25.00;87.80;;;;;;5077042;28;20201;-87
2023/05/18 13:55:49;;;;;;;;;;;25.40;88.50;;;;;;5080122;28;20383;-87
2023/05/18 13:58:16;;;;;;;;;;;25.70;87.40;;;;;;5083698;28;19924;-90
2023/05/18 14:00:45;;;;;;;;;;;25.40;86.90;;;;;;5070060;28;19932;-88
2023/05/18 14:03:13;;;;;;;;;;;25.90;86.20;;;;;;5071383;28;19959;-89
2023/05/18 14:05:41;;;;;;;;;;;25.90;85.60;;;;;;5070204;28;19932;-89
2023/05/18 14:08:08;;;;;;;;;;;26.00;85.90;;;;;;5089757;28;19928;-89
2023/05/18 14:10:35;;;;;;;;;;;26.60;84.80;;;;;;5073839;28;19928;-89
2023/05/18 14:13:02;;;;;;;;;;;27.40;82.90;;;;;;5082638;28;19931;-89
2023/05/18 14:15:28;;;;;;;;;;;27.90;81.30;;;;;;5094290;28;19931;-86
2023/05/18 14:17:55;;;;;;;;;;;28.20;81.70;;;;;;5062745;28;19947;-86
2023/05/18 14:20:22;;;;;;;;;;;28.40;81.70;;;;;;5070609;28;19928;-87
2023/05/18 14:22:49;;;;;;;;;;;27.90;81.00;;;;;;5072456;28;19934;-87